Time;durP1;ratioP1;P1;durP2;ratioP2;P2;SDS_P1;SDS_P2;PMS_P1;PMS_P2;Temp;Humidity;BMP_temperature;BMP_pressure;BME280_temperature;BME280_humidity;BME280_pressure;Samples;Min_cycle;Max_cycle;Signal;HPM_P1;HPM_P2
2022/10/31 00:01:29;;;;;;;21.70;16.00;;;;;;;11.69;86.73;98248.69;103328;1310;22485;-80
2022/10/31 00:03:57;;;;;;;24.50;18.10;;;;;;;11.69;87.16;98242.74;103311;1310;24312;-80
2022/10/31 00:06:25;;;;;;;23.40;16.70;;;;;;;11.71;87.17;98245.08;103413;1309;24324;-81
2022/10/31 00:08:56;;;;;;;18.00;14.80;;;;;;;11.73;87.36;98248.32;103256;1309;22523;-81
2022/10/31 00:11:24;;;;;;;24.60;16.00;;;;;;;11.78;87.42;98246.09;103421;1306;22474;-81
2022/10/31 00:13:52;;;;;;;20.10;16.60;;;;;;;11.82;87.47;98249.05;103290;1304;24260;-81
2022/10/31 00:16:23;;;;;;;24.40;17.20;;;;;;;11.85;87.60;98247.21;103333;1309;22471;-81
2022/10/31 00:18:53;;;;;;;22.70;17.20;;;;;;;11.85;87.54;98248.63;103333;1310;22489;-81
2022/10/31 00:21:22;;;;;;;23.30;16.70;;;;;;;11.88;87.63;98247.08;103352;1310;22492;-81
2022/10/31 00:23:50;;;;;;;34.00;18.20;;;;;;;11.90;87.58;98251.63;103310;1306;22522;-81
2022/10/31 00:26:19;;;;;;;26.70;17.00;;;;;;;11.92;87.82;98250.89;103357;1310;23867;-81
2022/10/31 00:28:47;;;;;;;23.80;17.60;;;;;;;11.94;87.53;98248.26;103404;1301;22470;-81
2022/10/31 00:31:15;;;;;;;22.90;16.50;;;;;;;11.94;87.37;98249.23;103363;1308;22474;-80
2022/10/31 00:33:44;;;;;;;28.00;18.10;;;;;;;11.95;87.32;98251.05;103327;1310;22479;-81
2022/10/31 00:36:15;;;;;;;22.10;18.60;;;;;;;11.96;87.22;98253.56;103318;1310;24294;-81
2022/10/31 00:38:44;;;;;;;23.00;17.30;;;;;;;11.96;86.84;98256.20;103414;1306;22487;-81
2022/10/31 00:41:14;;;;;;;22.70;17.30;;;;;;;11.94;86.78;98256.95;103306;1310;23099;-81
2022/10/31 00:43:42;;;;;;;26.00;19.70;;;;;;;11.88;86.52;98257.22;103410;1308;25328;-81
2022/10/31 00:46:12;;;;;;;24.20;18.50;;;;;;;11.82;86.73;98262.48;103343;1309;22504;-81
2022/10/31 00:48:41;;;;;;;21.40;16.60;;;;;;;11.75;86.90;98259.84;103420;1304;22505;-81
2022/10/31 00:51:10;;;;;;;21.80;16.90;;;;;;;11.69;86.64;98265.36;103296;1310;22579;-81
2022/10/31 00:53:39;;;;;;;21.30;15.80;;;;;;;11.63;86.42;98264.77;103460;1288;22483;-82
2022/10/31 00:56:07;;;;;;;22.70;17.30;;;;;;;11.53;86.15;98270.65;103430;1307;22562;-81
2022/10/31 00:58:36;;;;;;;21.90;18.60;;;;;;;11.37;86.49;98266.81;103438;1310;24197;-81
2022/10/31 01:01:04;;;;;;;24.30;19.20;;;;;;;11.30;86.75;98266.11;103269;1310;24520;-81
2022/10/31 01:03:34;;;;;;;23.20;20.20;;;;;;;11.26;87.01;98267.96;103325;1310;22505;-82
2022/10/31 01:06:06;;;;;;;20.40;18.10;;;;;;;11.24;87.00;98271.39;103354;1284;25239;-80
2022/10/31 01:08:36;;;;;;;23.10;19.40;;;;;;;11.21;86.88;98270.04;103027;1311;25209;-80
2022/10/31 01:11:13;;;;;;;25.50;18.90;;;;;;;11.20;86.58;98267.14;103474;1311;22474;-80
2022/10/31 01:13:42;;;;;;;23.60;17.90;;;;;;;11.14;86.59;98272.56;103343;1293;22528;-81
2022/10/31 01:16:13;;;;;;;26.00;22.20;;;;;;;11.03;86.30;98268.41;103383;1292;23876;-80
2022/10/31 01:18:41;;;;;;;26.40;21.40;;;;;;;10.92;86.37;98271.22;103374;1310;23228;-80
2022/10/31 01:21:12;;;;;;;21.40;18.20;;;;;;;10.81;86.46;98272.35;103336;1310;23997;-81
2022/10/31 01:23:41;;;;;;;23.10;16.20;;;;;;;10.68;86.27;98266.31;103109;1301;23921;-81
2022/10/31 01:26:10;;;;;;;22.00;17.60;;;;;;;10.53;86.45;98270.50;103417;1306;24321;-80
2022/10/31 01:28:49;;;;;;;21.90;18.20;;;;;;;10.30;86.41;98266.63;103150;1301;25239;-81
2022/10/31 01:31:19;;;;;;;18.90;16.00;;;;;;;10.15;87.24;98269.75;103400;1308;23640;-81
2022/10/31 01:33:47;;;;;;;24.00;17.80;;;;;;;9.97;87.76;98268.37;103486;1310;24241;-82
2022/10/31 01:36:33;;;;;;;25.60;22.90;;;;;;;9.81;87.73;98266.10;103398;1291;23871;-81
2022/10/31 01:39:05;;;;;;;24.20;17.20;;;;;;;9.77;87.71;98262.77;103404;1288;22521;-81
2022/10/31 01:41:36;;;;;;;21.10;17.00;;;;;;;9.72;87.59;98261.08;103491;1295;25326;-82
2022/10/31 01:44:14;;;;;;;23.30;18.90;;;;;;;9.71;87.90;98260.89;103347;1307;22479;-82
2022/10/31 01:46:55;;;;;;;22.40;19.60;;;;;;;9.61;88.00;98258.86;103459;1307;25690;-82
2022/10/31 01:49:47;;;;;;;26.10;23.40;;;;;;;9.52;87.87;98260.30;103421;1301;22468;-82
2022/10/31 01:52:24;;;;;;;29.20;24.40;;;;;;;9.42;87.86;98256.98;103366;1308;22562;-83
2022/10/31 01:54:59;;;;;;;23.70;18.60;;;;;;;9.35;87.96;98256.41;103321;1311;22472;-82
2022/10/31 01:57:31;;;;;;;19.80;17.10;;;;;;;9.37;87.80;98258.02;103341;1310;22508;-81
2022/10/31 02:00:04;;;;;;;20.80;16.90;;;;;;;9.37;88.02;98258.96;103305;1309;22578;-82
2022/10/31 02:02:41;;;;;;;21.00;17.80;;;;;;;9.32;88.59;98257.02;103362;1307;24224;-82
2022/10/31 02:05:14;;;;;;;25.10;19.30;;;;;;;9.26;89.60;98256.31;103432;1293;22479;-81
2022/10/31 02:07:59;;;;;;;24.10;19.00;;;;;;;9.20;89.51;98250.98;103345;1310;22489;-82
2022/10/31 02:10:31;;;;;;;23.50;17.60;;;;;;;9.20;90.03;98251.74;103371;1308;24237;-81
2022/10/31 02:13:02;;;;;;;18.90;16.70;;;;;;;9.20;89.30;98255.19;103335;1309;22495;-80
2022/10/31 02:15:32;;;;;;;22.70;19.40;;;;;;;9.19;90.18;98254.92;103363;1294;25281;-82
2022/10/31 02:18:00;;;;;;;26.00;18.80;;;;;;;9.31;90.37;98253.05;103383;1310;22483;-80
2022/10/31 02:20:44;;;;;;;21.00;17.70;;;;;;;9.44;90.02;98252.35;103293;1313;24357;-80
2022/10/31 02:23:34;;;;;;;20.00;17.30;;;;;;;9.55;90.41;98255.00;103336;1309;23910;-81
2022/10/31 02:26:32;;;;;;;26.30;19.40;;;;;;;9.65;90.08;98250.29;103344;1310;23256;-81
2022/10/31 02:29:19;;;;;;;20.00;15.20;;;;;;;9.74;90.53;98257.35;103402;1309;22487;-81
2022/10/31 02:32:07;;;;;;;25.60;21.10;;;;;;;9.77;90.08;98257.10;103261;1310;22460;-82
2022/10/31 02:34:56;;;;;;;20.60;17.10;;;;;;;9.71;90.20;98258.73;103382;1310;24302;-80
2022/10/31 02:37:48;;;;;;;19.20;17.20;;;;;;;9.65;90.54;98260.61;103387;1288;22486;-81
2022/10/31 02:40:25;;;;;;;24.80;19.30;;;;;;;9.62;91.07;98262.84;103333;1310;22482;-81
2022/10/31 02:43:26;;;;;;;30.80;19.90;;;;;;;9.70;91.72;98266.98;103334;1297;22612;-81
2022/10/31 02:46:17;;;;;;;23.50;17.90;;;;;;;9.80;91.68;98269.83;103354;1310;23921;-81
2022/10/31 02:48:46;;;;;;;27.10;20.40;;;;;;;9.91;91.67;98269.02;103367;1302;23187;-81
2022/10/31 02:51:16;;;;;;;25.90;22.90;;;;;;;10.03;91.43;98267.71;103436;1288;22466;-81
2022/10/31 02:53:44;;;;;;;25.10;21.20;;;;;;;10.14;91.64;98265.77;103456;1294;23848;-81
2022/10/31 02:56:15;;;;;;;27.00;21.50;;;;;;;10.23;91.97;98271.59;103384;1310;24783;-82
2022/10/31 02:58:47;;;;;;;26.90;21.50;;;;;;;10.30;91.74;98270.29;103312;1310;22507;-81
2022/10/31 03:01:24;;;;;;;23.90;20.90;;;;;;;10.34;91.52;98273.23;103601;1310;22480;-81
2022/10/31 03:03:59;;;;;;;22.90;18.40;;;;;;;10.36;91.24;98276.81;104114;1288;23859;-81
2022/10/31 03:06:39;;;;;;;21.30;17.50;;;;;;;10.24;90.86;98275.74;103797;1294;25194;-81
2022/10/31 03:09:19;;;;;;;23.10;18.90;;;;;;;10.10;91.77;98282.17;103412;1307;22476;-83
2022/10/31 03:12:11;;;;;;;21.20;18.70;;;;;;;10.03;91.49;98288.28;103520;1310;23880;-80
2022/10/31 03:14:53;;;;;;;23.30;18.30;;;;;;;9.93;91.28;98288.55;103351;1310;24454;-82
2022/10/31 03:17:35;;;;;;;21.60;18.70;;;;;;;9.81;91.21;98288.02;103173;1312;25505;-83
2022/10/31 03:20:10;;;;;;;25.70;20.00;;;;;;;9.74;91.39;98288.56;103499;1294;22478;-82
2022/10/31 03:22:42;;;;;;;25.60;17.60;;;;;;;9.71;91.25;98286.17;103370;1288;21800;-82
2022/10/31 03:25:12;;;;;;;21.80;17.10;;;;;;;9.71;91.64;98289.73;103429;1308;22427;-79
2022/10/31 03:27:44;;;;;;;26.20;19.70;;;;;;;9.65;91.17;98288.59;103099;1309;22491;-81
2022/10/31 03:30:13;;;;;;;29.60;23.70;;;;;;;9.54;91.20;98288.63;103214;1310;22473;-81
2022/10/31 03:32:55;;;;;;;28.80;22.20;;;;;;;9.48;91.52;98288.96;103280;1311;22548;-80
2022/10/31 03:35:28;;;;;;;29.20;24.00;;;;;;;9.51;91.81;98286.83;103370;1311;22966;-80
2022/10/31 03:37:58;;;;;;;28.00;20.40;;;;;;;9.53;91.46;98290.69;103387;1310;25556;-81
2022/10/31 03:40:37;;;;;;;21.50;19.20;;;;;;;9.51;91.35;98288.55;103303;1310;22476;-81
2022/10/31 03:43:10;;;;;;;24.20;20.70;;;;;;;9.47;91.15;98287.78;103175;1312;22496;-82
2022/10/31 03:45:45;;;;;;;30.10;25.20;;;;;;;9.41;90.88;98291.43;103375;1304;22548;-82
2022/10/31 03:48:16;;;;;;;25.70;21.80;;;;;;;9.33;91.24;98292.67;103182;1300;22503;-82
2022/10/31 03:50:56;;;;;;;27.10;23.90;;;;;;;9.21;91.15;98296.38;103439;1310;25385;-82
2022/10/31 03:53:34;;;;;;;26.40;22.30;;;;;;;9.08;91.60;98299.89;103482;1310;22483;-83
2022/10/31 03:56:26;;;;;;;29.70;24.10;;;;;;;8.97;92.06;98302.06;103201;1288;22468;-82
2022/10/31 03:59:06;;;;;;;31.90;22.80;;;;;;;8.88;91.95;98302.96;103719;1310;22486;-81
2022/10/31 04:01:40;;;;;;;23.30;20.00;;;;;;;8.82;92.12;98307.08;104952;1311;22488;-81
2022/10/31 04:04:10;;;;;;;25.90;21.80;;;;;;;8.82;92.22;98306.19;104387;1298;22543;-81
2022/10/31 04:06:42;;;;;;;26.70;20.10;;;;;;;8.73;92.72;98306.05;104759;1304;22495;-81
2022/10/31 04:09:10;;;;;;;27.70;22.00;;;;;;;8.68;93.32;98306.45;103371;1297;22460;-82
2022/10/31 04:11:48;;;;;;;23.70;18.90;;;;;;;8.70;93.20;98306.40;103444;1310;25246;-82
2022/10/31 04:14:36;;;;;;;21.10;18.90;;;;;;;8.72;93.12;98308.44;103420;1306;22480;-81
2022/10/31 04:17:09;;;;;;;27.70;21.50;;;;;;;8.75;93.20;98305.89;103381;1301;23109;-83
2022/10/31 04:19:39;;;;;;;23.80;19.80;;;;;;;8.69;92.77;98308.97;103355;1310;22474;-83
2022/10/31 04:22:07;;;;;;;24.50;21.70;;;;;;;8.54;92.66;98307.54;103170;1306;25248;-81
2022/10/31 04:24:39;;;;;;;30.50;22.00;;;;;;;8.39;92.65;98307.73;103250;1297;22460;-82
2022/10/31 04:27:08;;;;;;;27.00;20.70;;;;;;;8.28;93.24;98303.36;103358;1294;25379;-81
2022/10/31 04:29:36;;;;;;;24.10;18.80;;;;;;;8.20;93.57;98304.89;103254;1313;25635;-81
2022/10/31 04:32:04;;;;;;;28.80;21.80;;;;;;;8.13;93.88;98304.97;103306;1310;24420;-81
2022/10/31 04:34:32;;;;;;;33.10;24.50;;;;;;;8.10;94.03;98303.41;103343;1310;23889;-81
2022/10/31 04:36:59;;;;;;;31.40;26.80;;;;;;;8.06;94.39;98305.83;103284;1310;24550;-81
2022/10/31 04:39:27;;;;;;;25.50;21.90;;;;;;;8.03;94.03;98306.77;103216;1291;25229;-81
2022/10/31 04:42:14;;;;;;;25.00;22.10;;;;;;;7.95;93.74;98310.52;103289;1310;26715;-84
2022/10/31 04:44:42;;;;;;;36.90;32.90;;;;;;;7.93;94.46;98308.06;103275;1288;25290;-82
2022/10/31 04:47:10;;;;;;;27.30;24.20;;;;;;;7.98;94.31;98309.50;103257;1310;22467;-83
2022/10/31 04:49:38;;;;;;;28.60;25.70;;;;;;;8.02;94.34;98308.16;103397;1313;23912;-80
2022/10/31 04:52:07;;;;;;;25.10;22.10;;;;;;;8.08;94.53;98305.15;103368;1295;24234;-82
2022/10/31 04:54:35;;;;;;;35.00;28.50;;;;;;;8.09;94.17;98303.47;103227;1310;23355;-80
2022/10/31 04:57:47;;;;;;;27.90;25.00;;;;;;;8.15;94.18;98305.50;103203;1312;25209;-81
2022/10/31 05:00:18;;;;;;;26.20;20.40;;;;;;;8.19;94.26;98302.80;103317;1310;22476;-82
2022/10/31 05:02:51;;;;;;;29.40;26.40;;;;;;;8.20;94.28;98304.55;103330;1310;22470;-81
2022/10/31 05:05:23;;;;;;;31.60;26.70;;;;;;;8.16;94.51;98302.59;103416;1310;22499;-81
2022/10/31 05:07:52;;;;;;;33.10;25.30;;;;;;;8.07;95.10;98307.02;103471;1310;24336;-80
2022/10/31 05:10:24;;;;;;;25.80;23.30;;;;;;;7.98;95.19;98310.09;103203;1313;22474;-80
2022/10/31 05:12:54;;;;;;;28.80;25.70;;;;;;;7.88;94.75;98310.23;103119;1297;22487;-81
2022/10/31 05:15:41;;;;;;;29.10;25.60;;;;;;;7.84;95.07;98310.98;103368;1310;22747;-82
2022/10/31 05:18:29;;;;;;;25.80;23.10;;;;;;;7.86;94.88;98311.67;102910;1312;24298;-82
2022/10/31 05:21:16;;;;;;;28.20;23.30;;;;;;;7.82;94.61;98309.86;103275;1286;24259;-83
2022/10/31 05:23:49;;;;;;;27.20;24.50;;;;;;;7.78;94.79;98310.52;103137;1309;22486;-84
2022/10/31 05:26:17;;;;;;;28.50;24.40;;;;;;;7.71;95.38;98313.30;103516;1311;25236;-81
2022/10/31 05:28:45;;;;;;;28.80;23.10;;;;;;;7.65;96.14;98315.13;103237;1294;25242;-80
2022/10/31 05:31:13;;;;;;;35.80;32.20;;;;;;;7.59;96.12;98318.77;103186;1310;23101;-82
2022/10/31 05:33:41;;;;;;;31.50;23.70;;;;;;;7.57;95.64;98320.55;103376;1306;22469;-81
2022/10/31 05:36:27;;;;;;;27.70;23.70;;;;;;;7.55;95.68;98322.26;103229;1313;25229;-81
2022/10/31 05:39:01;;;;;;;32.70;29.40;;;;;;;7.50;95.95;98323.77;103151;1310;22502;-80
2022/10/31 05:41:34;;;;;;;33.90;30.50;;;;;;;7.46;95.68;98321.02;103180;1294;22479;-80
2022/10/31 05:44:08;;;;;;;;;;;;;;;7.45;95.72;98322.84;103304;1311;22438;-80
2022/10/31 05:46:50;;;;;;;31.10;27.70;;;;;;;7.40;95.78;98325.75;103225;1310;25233;-81
2022/10/31 05:49:18;;;;;;;31.40;28.30;;;;;;;7.38;95.90;98330.14;103109;1292;23921;-81
2022/10/31 05:52:04;;;;;;;32.40;26.30;;;;;;;7.40;96.43;98327.84;103355;1306;22505;-81
2022/10/31 05:54:44;;;;;;;36.30;32.50;;;;;;;7.43;96.25;98329.06;103297;1291;23788;-81
2022/10/31 05:57:12;;;;;;;41.80;37.90;;;;;;;7.41;96.37;98331.59;103234;1310;22473;-80
2022/10/31 05:59:40;;;;;;;40.60;36.30;;;;;;;7.43;96.59;98337.02;103263;1309;22680;-81
2022/10/31 06:02:08;;;;;;;33.90;30.60;;;;;;;7.48;96.74;98340.02;103290;1297;22467;-81
2022/10/31 06:05:12;;;;;;;31.10;27.80;;;;;;;7.54;96.76;98346.83;102940;1313;22482;-82
2022/10/31 06:07:42;;;;;;;34.50;30.50;;;;;;;7.60;96.71;98344.95;103302;1291;22477;-80
2022/10/31 06:10:10;;;;;;;31.50;28.10;;;;;;;7.70;97.08;98348.55;103225;1296;22474;-80
2022/10/31 06:12:40;;;;;;;33.80;30.10;;;;;;;7.85;97.34;98347.52;103264;1291;22470;-81
2022/10/31 06:15:37;;;;;;;36.80;29.50;;;;;;;8.04;97.32;98348.14;103269;1310;25200;-80
2022/10/31 06:18:08;;;;;;;36.90;32.30;;;;;;;8.26;98.19;98349.29;103424;1312;25319;-80
2022/10/31 06:20:46;;;;;;;38.80;30.80;;;;;;;8.44;97.79;98351.25;103438;1301;22496;-79
2022/10/31 06:23:14;;;;;;;31.80;28.10;;;;;;;8.55;97.69;98350.83;103023;1292;25281;-80
2022/10/31 06:25:43;;;;;;;31.30;27.30;;;;;;;8.60;97.11;98356.56;103205;1291;22473;-81
2022/10/31 06:28:12;;;;;;;33.00;28.30;;;;;;;8.66;97.44;98358.21;103418;1311;22477;-81
2022/10/31 06:31:06;;;;;;;33.40;26.60;;;;;;;8.75;97.69;98361.45;103285;1311;22460;-81
2022/10/31 06:33:34;;;;;;;34.40;30.80;;;;;;;8.85;98.03;98362.80;103310;1310;22671;-84
2022/10/31 06:36:02;;;;;;;32.10;29.00;;;;;;;8.97;97.60;98365.65;103080;1312;22467;-79
2022/10/31 06:38:31;;;;;;;35.90;32.10;;;;;;;9.10;97.83;98369.45;103044;1310;25205;-82
2022/10/31 06:41:04;;;;;;;31.90;28.60;;;;;;;9.24;98.01;98372.66;103165;1313;22477;-81
2022/10/31 06:43:41;;;;;;;33.00;27.30;;;;;;;9.39;98.12;98375.52;103095;1313;25268;-81
2022/10/31 06:46:47;;;;;;;35.20;30.60;;;;;;;9.58;97.73;98375.45;102848;1310;24248;-81
2022/10/31 06:49:51;;;;;;;32.00;28.60;;;;;;;9.75;97.92;98375.70;102594;1313;24278;-83
2022/10/31 06:52:23;;;;;;;30.10;27.10;;;;;;;9.90;97.78;98377.61;103122;1284;22511;-85
2022/10/31 06:54:51;;;;;;;30.40;27.20;;;;;;;10.03;97.83;98374.69;103165;1316;24243;-85
2022/10/31 06:57:21;;;;;;;30.70;27.50;;;;;;;10.14;97.54;98378.20;103185;1311;25208;-89
2022/10/31 06:59:49;;;;;;;37.40;25.90;;;;;;;10.23;97.71;98376.95;103338;1311;22473;-83
2022/10/31 07:02:37;;;;;;;27.50;24.70;;;;;;;10.35;97.69;98382.02;103259;1311;22482;-82
2022/10/31 07:05:06;;;;;;;27.10;24.40;;;;;;;10.48;97.58;98383.98;103215;1310;24314;-83
2022/10/31 07:07:33;;;;;;;27.80;24.50;;;;;;;10.60;97.48;98383.42;103376;1310;22738;-83
2022/10/31 07:10:01;;;;;;;41.70;32.30;;;;;;;10.70;97.46;98385.19;103365;1310;22478;-84
2022/10/31 07:13:01;;;;;;;49.30;38.70;;;;;;;10.79;97.18;98382.79;103057;1293;25251;-82
2022/10/31 07:15:36;;;;;;;43.90;34.60;;;;;;;10.84;97.19;98382.12;103311;1310;22475;-84
2022/10/31 07:18:06;;;;;;;50.20;33.40;;;;;;;10.92;97.23;98389.56;103387;1300;25200;-83
2022/10/31 07:20:35;;;;;;;36.10;30.40;;;;;;;11.01;97.14;98388.11;103374;1310;23336;-83
2022/10/31 07:23:03;;;;;;;48.50;33.20;;;;;;;11.08;97.02;98392.49;103269;1305;22474;-85
2022/10/31 07:25:32;;;;;;;47.60;35.00;;;;;;;11.16;97.05;98394.23;103328;1310;22862;-83
2022/10/31 07:28:20;;;;;;;37.00;32.40;;;;;;;11.25;97.31;98397.17;103337;1294;22465;-84
2022/10/31 07:30:55;;;;;;;39.70;32.80;;;;;;;11.33;97.29;98394.48;103326;1300;22522;-85
2022/10/31 07:33:25;;;;;;;27.20;23.40;;;;;;;11.42;97.01;98394.20;103386;1310;24314;-84
2022/10/31 07:36:12;;;;;;;36.60;25.20;;;;;;;11.47;96.64;98396.93;103263;1310;25669;-85
2022/10/31 07:38:42;;;;;;;29.00;23.50;;;;;;;11.50;96.58;98401.58;103317;1310;22815;-86
2022/10/31 07:41:09;;;;;;;26.90;24.00;;;;;;;11.57;96.61;98403.65;103279;1297;22476;-85
2022/10/31 07:43:41;;;;;;;27.30;21.70;;;;;;;11.64;96.28;98404.14;103284;1310;22524;-84
2022/10/31 07:46:33;;;;;;;25.50;20.20;;;;;;;11.73;96.09;98407.66;103218;1310;24233;-86
2022/10/31 07:49:19;;;;;;;31.90;26.10;;;;;;;11.82;95.70;98407.05;103301;1291;22488;-83
2022/10/31 07:52:06;;;;;;;30.60;27.30;;;;;;;11.93;95.70;98407.49;103380;1291;23876;-83
2022/10/31 07:54:34;;;;;;;36.30;32.50;;;;;;;12.02;96.02;98406.42;103332;1310;24050;-84
2022/10/31 07:57:02;;;;;;;48.60;33.00;;;;;;;12.12;95.80;98406.52;103289;1310;22876;-84
2022/10/31 07:59:29;;;;;;;45.50;35.50;;;;;;;12.17;95.51;98405.96;103221;1297;25221;-82
2022/10/31 08:01:57;;;;;;;39.30;32.70;;;;;;;12.20;95.31;98403.53;103280;1300;22510;-83
2022/10/31 08:04:49;;;;;;;36.70;29.90;;;;;;;12.27;95.25;98403.36;103341;1306;22470;-85
2022/10/31 08:07:29;;;;;;;38.10;29.90;;;;;;;12.34;95.57;98408.42;103723;1310;24241;-83
2022/10/31 08:10:00;;;;;;;35.70;29.20;;;;;;;12.45;95.36;98407.80;103357;1310;24450;-84
2022/10/31 08:12:30;;;;;;;35.20;25.60;;;;;;;12.52;94.57;98406.38;103317;1310;22503;-83
2022/10/31 08:14:58;;;;;;;33.70;29.90;;;;;;;12.58;94.35;98406.90;103198;1310;22495;-82
2022/10/31 08:17:26;;;;;;;38.30;30.30;;;;;;;12.64;94.51;98402.10;103271;1310;26484;-82
2022/10/31 08:19:56;;;;;;;30.50;25.80;;;;;;;12.67;94.15;98399.54;103385;1310;24234;-83
2022/10/31 08:22:36;;;;;;;28.30;23.10;;;;;;;12.72;94.09;98401.29;103389;1291;22443;-84
2022/10/31 08:25:10;;;;;;;;;;;;;;;12.79;93.75;98405.80;103316;1309;23130;-84
2022/10/31 08:27:40;;;;;;;36.60;23.20;;;;;;;12.83;93.35;98408.44;103462;1301;22501;-84
2022/10/31 08:30:15;;;;;;;28.90;24.90;;;;;;;12.87;93.21;98405.64;103323;1309;22552;-84
2022/10/31 08:32:57;;;;;;;36.40;22.40;;;;;;;12.93;93.42;98405.30;103315;1295;25323;-82
2022/10/31 08:35:44;;;;;;;31.00;21.00;;;;;;;13.04;93.51;98405.58;103302;1310;22481;-82
2022/10/31 08:38:31;;;;;;;41.70;21.10;;;;;;;13.16;93.04;98407.70;103257;1310;22547;-82
2022/10/31 08:40:59;;;;;;;37.70;21.40;;;;;;;13.25;92.25;98407.36;103318;1310;24268;-83
2022/10/31 08:43:27;;;;;;;26.40;20.70;;;;;;;13.32;91.57;98405.27;103226;1310;24208;-82
2022/10/31 08:45:55;;;;;;;32.00;22.30;;;;;;;13.36;91.55;98405.90;103324;1310;24269;-82
2022/10/31 08:48:29;;;;;;;35.20;22.30;;;;;;;13.43;91.68;98402.33;103300;1310;25610;-82
2022/10/31 08:50:58;;;;;;;28.40;19.40;;;;;;;13.53;91.14;98402.48;103149;1309;22464;-85
2022/10/31 08:53:27;;;;;;;27.70;20.10;;;;;;;13.64;91.56;98399.10;103328;1310;22699;-81
2022/10/31 08:56:18;;;;;;;25.10;17.80;;;;;;;13.82;91.25;98399.58;103278;1310;22470;-84
2022/10/31 08:58:46;;;;;;;24.10;19.40;;;;;;;13.91;90.15;98401.11;103269;1310;22491;-82
2022/10/31 09:01:15;;;;;;;28.30;20.00;;;;;;;13.98;90.08;98400.68;103315;1310;22470;-81
2022/10/31 09:03:43;;;;;;;28.40;19.70;;;;;;;14.05;90.39;98400.00;103105;1311;24405;-84
2022/10/31 09:06:12;;;;;;;30.20;22.60;;;;;;;14.15;89.68;98401.50;103277;1287;25366;-84
2022/10/31 09:08:40;;;;;;;28.10;18.90;;;;;;;14.22;89.52;98398.38;103182;1307;22473;-82
2022/10/31 09:11:08;;;;;;;27.20;18.60;;;;;;;14.32;89.57;98397.98;103272;1309;24314;-80
2022/10/31 09:13:55;;;;;;;33.40;18.90;;;;;;;14.44;89.09;98399.16;103246;1310;26707;-81
2022/10/31 09:16:41;;;;;;;26.30;18.40;;;;;;;14.55;88.45;98399.57;103279;1303;22917;-82
2022/10/31 09:19:15;;;;;;;22.10;18.50;;;;;;;14.64;88.72;98403.95;103241;1294;25318;-80
2022/10/31 09:21:45;;;;;;;23.80;17.70;;;;;;;14.73;86.69;98405.42;103351;1310;24234;-81
2022/10/31 09:24:13;;;;;;;25.30;17.90;;;;;;;14.80;86.78;98409.21;103226;1310;22603;-82
2022/10/31 09:26:42;;;;;;;27.70;18.70;;;;;;;14.90;86.84;98410.17;103304;1288;22746;-82
2022/10/31 09:29:15;;;;;;;23.80;16.20;;;;;;;15.00;84.49;98413.42;103261;1310;22852;-83
2022/10/31 09:31:44;;;;;;;24.10;17.00;;;;;;;15.04;83.20;98414.56;103277;1294;22553;-81
2022/10/31 09:34:26;;;;;;;19.60;15.20;;;;;;;15.11;84.50;98417.00;103287;1310;24286;-81
2022/10/31 09:37:06;;;;;;;20.20;15.80;;;;;;;15.23;84.78;98412.05;103371;1310;25350;-84
2022/10/31 09:39:35;;;;;;;21.10;16.10;;;;;;;15.37;84.77;98412.98;103337;1288;26498;-83
2022/10/31 09:42:35;;;;;;;29.00;16.80;;;;;;;15.51;85.28;98409.37;103250;1301;22482;-85
2022/10/31 09:45:21;;;;;;;21.50;16.50;;;;;;;15.67;85.45;98406.70;103586;1310;22463;-82
2022/10/31 09:48:04;;;;;;;61.20;19.90;;;;;;;15.79;83.32;98409.23;103358;1288;25255;-81
2022/10/31 09:50:47;;;;;;;31.30;16.20;;;;;;;15.85;83.05;98406.27;103251;1308;23699;-82
2022/10/31 09:53:43;;;;;;;23.40;17.70;;;;;;;15.99;83.20;98407.18;103359;1303;24337;-81
2022/10/31 09:56:18;;;;;;;18.90;15.10;;;;;;;16.10;83.36;98406.20;103375;1310;22526;-81
2022/10/31 09:58:55;;;;;;;22.30;14.90;;;;;;;16.23;83.46;98404.81;103360;1310;25256;-83
2022/10/31 10:01:41;;;;;;;34.90;17.10;;;;;;;16.37;82.07;98408.81;103459;1310;24408;-84
2022/10/31 10:04:19;;;;;;;21.20;12.80;;;;;;;16.50;79.90;98406.46;103523;1289;22461;-81
2022/10/31 10:07:32;;;;;;;23.20;13.70;;;;;;;16.64;80.53;98404.77;105256;1292;22499;-79
2022/10/31 10:10:28;;;;;;;23.80;14.60;;;;;;;16.79;81.53;98401.57;105069;1294;23289;-80
2022/10/31 10:13:18;;;;;;;24.60;15.10;;;;;;;16.98;80.84;98399.05;103948;1310;22496;-82
2022/10/31 10:16:23;;;;;;;19.90;13.40;;;;;;;17.07;78.29;98403.58;103497;1310;23037;-83
2022/10/31 10:19:07;;;;;;;19.00;13.40;;;;;;;17.14;77.92;98403.88;103557;1288;25251;-82
2022/10/31 10:21:56;;;;;;;19.10;13.80;;;;;;;17.17;77.09;98402.37;103468;1297;25203;-82
2022/10/31 10:24:36;;;;;;;22.10;15.70;;;;;;;17.27;78.47;98400.97;105241;1310;22514;-83
2022/10/31 10:27:33;;;;;;;18.30;15.80;;;;;;;17.40;76.95;98402.01;105973;1310;22559;-83
2022/10/31 10:30:03;;;;;;;28.60;16.10;;;;;;;17.51;77.29;98399.67;103342;1310;25242;-83
2022/10/31 10:32:46;;;;;;;23.10;14.40;;;;;;;17.62;77.01;98402.20;103452;1297;22429;-83
2022/10/31 10:35:31;;;;;;;21.70;14.30;;;;;;;17.70;76.39;98402.20;104431;1288;25244;-84
2022/10/31 10:38:22;;;;;;;27.00;15.00;;;;;;;17.79;76.41;98403.70;104930;1310;24304;-82
2022/10/31 10:40:53;;;;;;;21.20;13.70;;;;;;;17.92;75.77;98402.14;103950;1296;25206;-84
2022/10/31 10:43:32;;;;;;;19.50;13.90;;;;;;;18.00;74.80;98398.95;103363;1286;24892;-84
2022/10/31 10:49:17;;;;;;;19.20;14.00;;;;;;;18.20;75.12;98396.67;103304;1310;23839;-84
2022/10/31 10:51:51;;;;;;;19.60;14.60;;;;;;;18.32;75.70;98394.20;103373;1291;22464;-85
2022/10/31 10:54:41;;;;;;;30.40;15.00;;;;;;;18.52;75.96;98393.78;103334;1294;25313;-84
2022/10/31 10:57:21;;;;;;;36.30;20.20;;;;;;;18.68;74.86;98390.49;103389;1301;22521;-82
2022/10/31 10:59:50;;;;;;;34.20;18.50;;;;;;;18.89;73.49;98392.05;103324;1306;22479;-82
2022/10/31 11:02:22;;;;;;;22.60;14.50;;;;;;;19.40;70.98;98393.21;103254;1310;23920;-83
2022/10/31 11:04:57;;;;;;;26.40;13.90;;;;;;;20.34;72.28;98385.27;103231;1305;22548;-83
2022/10/31 11:07:25;;;;;;;22.00;13.00;;;;;;;21.18;70.11;98384.19;103282;1288;25386;-82
2022/10/31 11:10:04;;;;;;;31.60;14.60;;;;;;;21.78;70.90;98380.65;103227;1300;22490;-83
2022/10/31 11:12:33;;;;;;;18.70;12.80;;;;;;;22.13;63.75;98386.77;103272;1300;24240;-83
2022/10/31 11:15:21;;;;;;;25.20;13.70;;;;;;;22.13;62.93;98386.35;103252;1310;24298;-82
2022/10/31 11:17:52;;;;;;;20.40;12.00;;;;;;;22.12;65.93;98380.29;103310;1290;23898;-83
2022/10/31 11:20:28;;;;;;;74.50;17.80;;;;;;;22.11;64.05;98375.19;103405;1288;25316;-82
2022/10/31 11:23:28;;;;;;;24.70;13.30;;;;;;;22.02;65.24;98375.55;103384;1310;23869;-83
2022/10/31 11:25:58;;;;;;;21.20;13.00;;;;;;;21.73;63.19;98378.13;103171;1309;25265;-81
2022/10/31 11:28:32;;;;;;;19.50;13.60;;;;;;;21.54;62.71;98374.52;103189;1309;137190;-83
2022/10/31 11:31:13;;;;;;;33.10;14.30;;;;;;;21.42;62.92;98372.46;103193;1310;23856;-82
2022/10/31 11:33:49;;;;;;;43.70;15.60;;;;;;;21.47;62.56;98371.54;103185;1301;24289;-82
2022/10/31 11:36:31;;;;;;;23.60;13.30;;;;;;;21.54;62.34;98371.63;103326;1304;25335;-82
2022/10/31 11:39:01;;;;;;;23.20;13.70;;;;;;;21.59;62.24;98372.19;103331;1310;24140;-83
2022/10/31 11:41:33;;;;;;;17.90;12.50;;;;;;;21.68;60.96;98373.02;103247;1310;22915;-82
2022/10/31 11:44:16;;;;;;;34.20;13.70;;;;;;;21.68;60.58;98371.21;103312;1303;24240;-83
2022/10/31 11:46:48;;;;;;;26.90;13.10;;;;;;;21.70;60.98;98369.20;103254;1310;25298;-82
2022/10/31 11:49:23;;;;;;;20.20;12.50;;;;;;;21.76;60.88;98365.02;103345;1304;25283;-86
2022/10/31 11:51:54;;;;;;;21.20;13.00;;;;;;;21.85;61.87;98364.17;103317;1291;25414;-83
2022/10/31 11:54:44;;;;;;;27.30;15.20;;;;;;;22.01;62.05;98361.82;103370;1310;24394;-84